createdAt,value
2018-08-25T00:00:45.591Z,0.00
2018-08-25T00:01:45.593Z,0.00
2018-08-25T00:02:45.559Z,0.00
2018-08-25T00:03:45.547Z,0.00
2018-08-25T00:04:45.555Z,0.00
2018-08-25T00:05:45.526Z,0.00
2018-08-25T00:06:45.571Z,0.00
2018-08-25T00:07:45.504Z,0.00
2018-08-25T00:08:45.493Z,0.00
2018-08-25T00:09:45.481Z,0.00
2018-08-25T00:10:45.508Z,0.00
2018-08-25T00:11:45.456Z,0.00
2018-08-25T00:12:45.449Z,0.00
2018-08-25T00:13:45.435Z,0.00
2018-08-25T00:14:45.426Z,0.00
2018-08-25T00:15:45.450Z,0.00
2018-08-25T00:16:45.423Z,0.00
2018-08-25T00:17:45.392Z,0.00
2018-08-25T00:18:45.387Z,0.00
2018-08-25T00:19:45.370Z,0.00
2018-08-25T00:20:45.356Z,0.00
2018-08-25T00:21:45.345Z,0.00
2018-08-25T00:22:45.370Z,0.00
2018-08-25T00:23:45.330Z,0.00
2018-08-25T00:24:45.320Z,0.00
2018-08-25T00:25:45.344Z,0.00
2018-08-25T00:26:45.291Z,0.00
2018-08-25T00:27:45.281Z,0.00
2018-08-25T00:28:45.303Z,0.00
2018-08-25T00:29:45.259Z,0.00
2018-08-25T00:30:45.247Z,0.00
2018-08-25T00:31:45.255Z,0.00
2018-08-25T00:32:45.225Z,0.00
2018-08-25T00:33:45.212Z,0.00
2018-08-25T00:34:45.240Z,0.00
2018-08-25T00:35:45.192Z,0.00
2018-08-25T00:36:45.178Z,0.00
2018-08-25T00:37:45.182Z,0.00
2018-08-25T00:38:45.158Z,0.00
2018-08-25T00:39:45.146Z,0.00
2018-08-25T00:40:45.137Z,0.00
2018-08-25T00:41:45.193Z,0.00
2018-08-25T00:42:45.129Z,0.00
2018-08-25T00:43:45.102Z,0.00
2018-08-25T00:44:45.091Z,0.00
2018-08-25T00:45:45.080Z,0.00
2018-08-25T00:46:45.068Z,0.00
2018-08-25T00:47:45.135Z,0.00
2018-08-25T00:48:45.077Z,0.00
2018-08-25T00:49:45.038Z,0.00
2018-08-25T00:50:45.024Z,0.00
2018-08-25T00:51:45.026Z,0.00
2018-08-25T00:52:45.023Z,0.00
2018-08-25T00:53:44.992Z,0.00
2018-08-25T00:54:44.979Z,0.00
2018-08-25T00:55:44.971Z,0.00
2018-08-25T00:56:44.958Z,0.00
2018-08-25T00:57:44.947Z,0.00
2018-08-25T00:58:44.949Z,0.00
2018-08-25T00:59:44.932Z,0.00
2018-08-25T01:00:44.938Z,0.00
2018-08-25T01:01:44.904Z,0.00
2018-08-25T01:02:44.910Z,0.00
2018-08-25T01:03:44.882Z,0.00
2018-08-25T01:04:44.911Z,0.00
2018-08-25T01:05:44.860Z,0.00
2018-08-25T01:06:44.860Z,0.00
2018-08-25T01:07:44.836Z,0.00
2018-08-25T01:08:44.878Z,0.00
2018-08-25T01:09:44.815Z,0.00
2018-08-25T01:10:44.815Z,0.00
2018-08-25T01:11:44.790Z,0.00
2018-08-25T01:12:44.779Z,0.00
2018-08-25T01:13:44.770Z,0.00
2018-08-25T01:14:44.760Z,0.00
2018-08-25T01:15:44.895Z,0.00
2018-08-25T01:16:44.739Z,0.00
2018-08-25T01:17:44.729Z,0.00
2018-08-25T01:18:44.730Z,0.00
2018-08-25T01:19:44.715Z,0.00
2018-08-25T01:20:44.707Z,0.00
2018-08-25T01:21:44.679Z,0.00
2018-08-25T01:22:44.672Z,0.00
2018-08-25T01:23:44.668Z,0.00
2018-08-25T01:24:44.647Z,0.00
2018-08-25T01:25:44.695Z,0.00
2018-08-25T01:26:44.627Z,0.00
2018-08-25T01:27:44.614Z,0.00
2018-08-25T01:28:44.607Z,0.00
2018-08-25T01:29:44.645Z,0.00
2018-08-25T01:30:44.597Z,0.00
2018-08-25T01:31:44.571Z,0.00
2018-08-25T01:32:44.604Z,0.00
2018-08-25T01:33:44.567Z,0.00
2018-08-25T01:34:44.537Z,0.00
2018-08-25T01:35:44.527Z,0.00
2018-08-25T01:36:44.518Z,0.00
2018-08-25T01:37:44.522Z,0.00
2018-08-25T01:38:44.523Z,0.00
2018-08-25T01:39:44.497Z,0.00
2018-08-25T01:40:44.472Z,0.00
2018-08-25T01:41:44.463Z,0.00
2018-08-25T01:42:44.468Z,0.00
2018-08-25T01:43:44.452Z,0.00
2018-08-25T01:44:44.428Z,0.00
2018-08-25T01:45:44.418Z,0.00
2018-08-25T01:46:44.406Z,0.00
2018-08-25T01:47:44.406Z,0.00
2018-08-25T01:48:44.396Z,0.00
2018-08-25T01:49:44.370Z,0.00
2018-08-25T01:50:44.363Z,0.00
2018-08-25T01:51:44.348Z,0.00
2018-08-25T01:52:44.392Z,0.00
2018-08-25T01:53:44.340Z,0.00
2018-08-25T01:54:44.343Z,0.00
2018-08-25T01:55:44.305Z,0.00
2018-08-25T01:56:44.296Z,0.00
2018-08-25T01:57:44.308Z,0.00
2018-08-25T01:58:44.273Z,0.00
2018-08-25T01:59:44.263Z,0.00
2018-08-25T02:00:44.267Z,0.00
2018-08-25T02:01:44.238Z,0.00
2018-08-25T02:02:44.254Z,0.00
2018-08-25T02:03:44.223Z,0.00
2018-08-25T02:04:44.208Z,0.00
2018-08-25T02:05:44.213Z,0.00
2018-08-25T02:06:44.183Z,0.00
2018-08-25T02:07:44.177Z,0.00
2018-08-25T02:08:44.163Z,0.00
2018-08-25T02:09:44.185Z,0.00
2018-08-25T02:10:44.141Z,0.00
2018-08-25T02:11:44.132Z,0.00
2018-08-25T02:12:44.120Z,0.00
2018-08-25T02:13:44.109Z,0.00
2018-08-25T02:14:44.112Z,0.00
2018-08-25T02:15:44.099Z,0.00
2018-08-25T02:16:44.076Z,0.00
2018-08-25T02:17:44.073Z,0.00
2018-08-25T02:18:44.057Z,0.00
2018-08-25T02:19:44.058Z,0.00
2018-08-25T02:20:44.048Z,0.00
2018-08-25T02:21:44.027Z,0.00
2018-08-25T02:22:44.007Z,0.00
2018-08-25T02:23:44.004Z,0.00
2018-08-25T02:24:44.048Z,0.00
2018-08-25T02:25:43.974Z,0.00
2018-08-25T02:26:43.963Z,0.00
2018-08-25T02:27:43.953Z,0.00
2018-08-25T02:28:43.952Z,0.00
2018-08-25T02:29:43.929Z,0.00
2018-08-25T02:30:43.919Z,0.00
2018-08-25T02:31:43.929Z,0.00
2018-08-25T02:32:43.897Z,0.00
2018-08-25T02:33:43.924Z,0.00
2018-08-25T02:34:43.894Z,0.00
2018-08-25T02:35:43.871Z,0.00
2018-08-25T02:36:43.852Z,0.00
2018-08-25T02:37:43.842Z,0.00
2018-08-25T02:38:43.880Z,0.00
2018-08-25T02:39:43.836Z,0.00
2018-08-25T02:40:43.817Z,0.00
2018-08-25T02:41:43.801Z,0.00
2018-08-25T02:42:43.791Z,0.00
2018-08-25T02:43:43.794Z,0.00
2018-08-25T02:44:43.767Z,0.00
2018-08-25T02:45:43.783Z,0.00
2018-08-25T02:46:43.750Z,0.00
2018-08-25T02:47:43.736Z,0.00
2018-08-25T02:48:43.763Z,0.00
2018-08-25T02:49:43.712Z,0.00
2018-08-25T02:50:43.698Z,0.00
2018-08-25T02:51:43.712Z,0.00
2018-08-25T02:52:43.724Z,0.00
2018-08-25T02:53:43.665Z,0.00
2018-08-25T02:54:43.672Z,0.00
2018-08-25T02:55:43.644Z,0.00
2018-08-25T02:56:43.632Z,0.00
2018-08-25T02:57:43.621Z,0.00
2018-08-25T02:58:43.610Z,0.00
2018-08-25T02:59:43.616Z,0.00
2018-08-25T03:00:43.604Z,0.00
2018-08-25T03:01:43.579Z,0.00
2018-08-25T03:02:43.584Z,0.00
2018-08-25T03:03:43.556Z,0.00
2018-08-25T03:04:43.572Z,0.00
2018-08-25T03:05:43.535Z,0.00
2018-08-25T03:06:43.521Z,0.00
2018-08-25T03:07:43.511Z,0.00
2018-08-25T03:08:43.508Z,0.00
2018-08-25T03:09:43.498Z,0.00
2018-08-25T03:10:43.496Z,0.00
2018-08-25T03:11:43.468Z,0.00
2018-08-25T03:12:43.482Z,0.00
2018-08-25T03:13:43.501Z,0.00
2018-08-25T03:14:43.435Z,0.00
2018-08-25T03:15:43.443Z,0.00
2018-08-25T03:16:43.414Z,0.00
2018-08-25T03:17:43.416Z,0.00
2018-08-25T03:18:43.392Z,0.00
2018-08-25T03:19:43.380Z,0.00
2018-08-25T03:20:43.370Z,0.00
2018-08-25T03:21:43.370Z,0.00
2018-08-25T03:22:43.360Z,0.00
2018-08-25T03:23:43.334Z,0.00
2018-08-25T03:24:43.334Z,0.00
2018-08-25T03:25:43.314Z,0.00
2018-08-25T03:26:43.317Z,0.00
2018-08-25T03:27:43.291Z,0.00
2018-08-25T03:28:43.299Z,0.00
2018-08-25T03:29:43.269Z,0.00
2018-08-25T03:30:43.310Z,0.00
2018-08-25T03:31:43.276Z,0.00
2018-08-25T03:32:43.235Z,0.00
2018-08-25T03:33:43.243Z,0.00
2018-08-25T03:34:43.214Z,0.00
2018-08-25T03:35:43.202Z,0.00
2018-08-25T03:36:43.209Z,0.00
2018-08-25T03:37:43.182Z,0.00
2018-08-25T03:38:43.167Z,0.00
2018-08-25T03:39:43.160Z,0.00
2018-08-25T03:40:43.156Z,0.00
2018-08-25T03:41:43.151Z,0.00
2018-08-25T03:42:43.125Z,0.00
2018-08-25T03:43:43.112Z,0.00
2018-08-25T03:44:43.123Z,0.00
2018-08-25T03:45:43.106Z,0.00
2018-08-25T03:46:43.081Z,0.00
2018-08-25T03:47:43.081Z,0.00
2018-08-25T03:48:43.058Z,0.00
2018-08-25T03:49:43.094Z,0.00
2018-08-25T03:50:43.035Z,0.00
2018-08-25T03:51:43.025Z,0.00
2018-08-25T03:52:43.015Z,0.00
2018-08-25T03:53:43.002Z,0.00
2018-08-25T03:54:42.993Z,0.00
2018-08-25T03:55:42.996Z,0.00
2018-08-25T03:56:42.968Z,0.00
2018-08-25T03:57:42.959Z,0.00
2018-08-25T03:58:42.951Z,0.00
2018-08-25T03:59:42.947Z,0.00
2018-08-25T04:00:42.940Z,0.00
2018-08-25T04:01:42.989Z,0.00
2018-08-25T04:02:42.905Z,0.00
2018-08-25T04:03:42.892Z,0.00
2018-08-25T04:04:42.909Z,0.00
2018-08-25T04:05:42.906Z,0.00
2018-08-25T04:06:42.863Z,0.00
2018-08-25T04:07:42.848Z,0.00
2018-08-25T04:08:42.837Z,0.00
2018-08-25T04:09:42.825Z,0.00
2018-08-25T04:10:42.816Z,0.00
2018-08-25T04:11:42.815Z,0.00
2018-08-25T04:12:42.791Z,0.00
2018-08-25T04:13:42.779Z,0.00
2018-08-25T04:14:42.823Z,0.00
2018-08-25T04:15:42.758Z,0.00
2018-08-25T04:16:42.767Z,0.00
2018-08-25T04:17:42.735Z,0.00
2018-08-25T04:18:42.727Z,5.62
2018-08-25T04:19:42.716Z,5.62
2018-08-25T04:20:42.704Z,5.62
2018-08-25T04:21:42.692Z,5.62
2018-08-25T04:22:42.698Z,5.62
2018-08-25T04:23:42.669Z,5.62
2018-08-25T04:24:42.662Z,5.62
2018-08-25T04:25:42.663Z,5.62
2018-08-25T04:26:42.636Z,11.25
2018-08-25T04:27:42.637Z,11.25
2018-08-25T04:28:42.623Z,11.25
2018-08-25T04:29:42.625Z,11.25
2018-08-25T04:30:42.593Z,11.25
2018-08-25T04:31:42.599Z,11.25
2018-08-25T04:32:42.591Z,11.25
2018-08-25T04:33:42.565Z,11.25
2018-08-25T04:34:42.549Z,11.25
2018-08-25T04:35:42.539Z,16.88
2018-08-25T04:36:42.533Z,16.88
2018-08-25T04:37:42.530Z,16.88
2018-08-25T04:38:42.505Z,22.50
2018-08-25T04:39:42.490Z,22.50
2018-08-25T04:40:42.479Z,28.12
2018-08-25T04:41:42.473Z,28.12
2018-08-25T04:42:42.480Z,33.75
2018-08-25T04:43:42.446Z,33.75
2018-08-25T04:44:42.434Z,39.38
2018-08-25T04:45:42.432Z,39.38
2018-08-25T04:46:42.412Z,33.75
2018-08-25T04:47:42.401Z,33.75
2018-08-25T04:48:42.404Z,28.12
2018-08-25T04:49:42.383Z,16.88
2018-08-25T04:50:42.368Z,16.88
2018-08-25T04:51:42.361Z,16.88
2018-08-25T04:52:42.368Z,16.88
2018-08-25T04:53:42.336Z,16.88
2018-08-25T04:54:42.327Z,16.88
2018-08-25T04:55:42.312Z,11.25
2018-08-25T04:56:42.313Z,11.25
2018-08-25T04:57:42.293Z,11.25
2018-08-25T04:58:42.298Z,16.88
2018-08-25T04:59:42.318Z,16.88
2018-08-25T05:00:42.259Z,16.88
2018-08-25T05:01:42.284Z,16.88
2018-08-25T05:02:42.235Z,16.88
2018-08-25T05:03:42.226Z,16.88
2018-08-25T05:04:42.238Z,22.50
2018-08-25T05:05:42.219Z,28.12
2018-08-25T05:06:42.196Z,33.75
2018-08-25T05:07:42.240Z,28.12
2018-08-25T05:08:42.168Z,28.12
2018-08-25T05:09:42.157Z,28.12
2018-08-25T05:10:42.165Z,28.12
2018-08-25T05:11:42.134Z,28.12
2018-08-25T05:12:42.131Z,28.12
2018-08-25T05:13:42.112Z,28.12
2018-08-25T05:14:42.101Z,28.12
2018-08-25T05:15:42.105Z,22.50
2018-08-25T05:16:42.079Z,22.50
2018-08-25T05:17:42.068Z,22.50
2018-08-25T05:18:42.059Z,22.50
2018-08-25T05:19:42.064Z,28.12
2018-08-25T05:20:42.040Z,33.75
2018-08-25T05:21:42.024Z,39.38
2018-08-25T05:22:42.015Z,45.00
2018-08-25T05:23:42.016Z,45.00
2018-08-25T05:24:42.017Z,45.00
2018-08-25T05:25:41.982Z,45.00
2018-08-25T05:26:41.969Z,50.62
2018-08-25T05:27:41.958Z,45.00
2018-08-25T05:28:41.948Z,45.00
2018-08-25T05:29:41.939Z,39.38
2018-08-25T05:30:41.943Z,39.38
2018-08-25T05:31:41.919Z,33.75
2018-08-25T05:32:41.919Z,33.75
2018-08-25T05:33:41.892Z,33.75
2018-08-25T05:34:41.883Z,33.75
2018-08-25T05:35:41.872Z,33.75
2018-08-25T05:36:41.860Z,39.38
2018-08-25T05:37:41.865Z,39.38
2018-08-25T05:38:41.838Z,39.38
2018-08-25T05:39:41.827Z,45.00
2018-08-25T05:40:41.821Z,45.00
2018-08-25T05:41:41.808Z,50.62
2018-08-25T05:42:41.820Z,61.88
2018-08-25T05:43:41.787Z,73.12
2018-08-25T05:44:41.788Z,84.38
2018-08-25T05:45:41.763Z,95.62
2018-08-25T05:46:41.752Z,106.88
2018-08-25T05:47:41.739Z,112.50
2018-08-25T05:48:41.748Z,123.75
2018-08-25T05:49:41.721Z,140.62
2018-08-25T05:50:41.707Z,151.88
2018-08-25T05:51:41.697Z,163.12
2018-08-25T05:52:41.685Z,174.38
2018-08-25T05:53:41.676Z,202.50
2018-08-25T05:54:41.680Z,230.62
2018-08-25T05:55:41.656Z,225.00
2018-08-25T05:56:41.643Z,219.38
2018-08-25T05:57:41.690Z,208.12
2018-08-25T05:58:41.626Z,208.12
2018-08-25T05:59:41.623Z,213.75
2018-08-25T06:00:41.602Z,191.25
2018-08-25T06:01:41.617Z,174.38
2018-08-25T06:02:41.576Z,157.50
2018-08-25T06:03:41.563Z,151.88
2018-08-25T06:04:41.556Z,174.38
2018-08-25T06:05:41.547Z,180.00
2018-08-25T06:06:41.639Z,146.25
2018-08-25T06:07:41.538Z,106.88
2018-08-25T06:08:41.513Z,90.00
2018-08-25T06:09:41.500Z,67.50
2018-08-25T06:10:41.488Z,45.00
2018-08-25T06:11:41.476Z,45.00
2018-08-25T06:12:41.483Z,50.62
2018-08-25T06:13:41.496Z,50.62
2018-08-25T06:14:41.448Z,45.00
2018-08-25T06:15:41.439Z,45.00
2018-08-25T06:16:41.422Z,78.75
2018-08-25T06:17:41.432Z,95.62
2018-08-25T06:18:41.403Z,78.75
2018-08-25T06:19:41.404Z,73.12
2018-08-25T06:20:41.380Z,78.75
2018-08-25T06:21:41.368Z,90.00
2018-08-25T06:22:41.362Z,106.88
2018-08-25T06:23:41.346Z,101.25
2018-08-25T06:24:41.373Z,78.75
2018-08-25T06:25:41.326Z,61.88
2018-08-25T06:26:41.316Z,50.62
2018-08-25T06:27:41.305Z,39.38
2018-08-25T06:28:41.290Z,45.00
2018-08-25T06:29:41.360Z,56.25
2018-08-25T06:30:41.284Z,118.12
2018-08-25T06:31:41.261Z,123.75
2018-08-25T06:32:41.249Z,101.25
2018-08-25T06:33:41.235Z,123.75
2018-08-25T06:34:41.225Z,163.12
2018-08-25T06:35:41.255Z,202.50
2018-08-25T06:36:41.321Z,230.62
2018-08-25T06:37:41.192Z,258.75
2018-08-25T06:38:41.183Z,281.25
2018-08-25T06:39:41.170Z,281.25
2018-08-25T06:40:41.162Z,281.25
2018-08-25T06:41:41.172Z,292.50
2018-08-25T06:42:41.148Z,371.25
2018-08-25T06:43:41.248Z,461.25
2018-08-25T06:44:41.121Z,489.38
2018-08-25T06:45:41.105Z,399.38
2018-08-25T06:46:41.096Z,343.12
2018-08-25T06:47:41.100Z,444.38
2018-08-25T06:48:41.073Z,517.50
2018-08-25T06:49:41.068Z,455.62
2018-08-25T06:50:41.051Z,382.50
2018-08-25T06:51:41.053Z,360.00
2018-08-25T06:52:41.030Z,348.75
2018-08-25T06:53:41.016Z,354.38
2018-08-25T06:54:41.008Z,326.25
2018-08-25T06:55:40.995Z,286.88
2018-08-25T06:56:40.999Z,253.12
2018-08-25T06:57:40.972Z,253.12
2018-08-25T06:58:40.961Z,247.50
2018-08-25T06:59:41.031Z,264.38
2018-08-25T07:00:40.939Z,292.50
2018-08-25T07:01:40.946Z,326.25
2018-08-25T07:02:40.919Z,365.62
2018-08-25T07:03:40.905Z,517.50
2018-08-25T07:04:40.899Z,455.62
2018-08-25T07:05:40.887Z,1051.88
2018-08-25T07:06:40.873Z,1378.12
2018-08-25T07:07:40.916Z,843.75
2018-08-25T07:08:40.851Z,708.75
2018-08-25T07:09:40.840Z,1620.00
2018-08-25T07:10:40.831Z,1501.88
2018-08-25T07:11:40.820Z,601.88
2018-08-25T07:12:40.814Z,388.12
2018-08-25T07:13:40.808Z,281.25
2018-08-25T07:14:40.825Z,247.50
2018-08-25T07:15:40.776Z,270.00
2018-08-25T07:16:40.764Z,303.75
2018-08-25T07:17:40.757Z,281.25
2018-08-25T07:18:40.744Z,264.38
2018-08-25T07:19:40.729Z,270.00
2018-08-25T07:20:40.737Z,343.12
2018-08-25T07:21:40.707Z,461.25
2018-08-25T07:22:40.696Z,506.25
2018-08-25T07:23:40.687Z,680.62
2018-08-25T07:24:40.675Z,725.62
2018-08-25T07:25:40.715Z,450.00
2018-08-25T07:26:40.654Z,500.62
2018-08-25T07:27:40.641Z,556.88
2018-08-25T07:28:40.631Z,540.00
2018-08-25T07:29:40.619Z,2109.38
2018-08-25T07:30:40.623Z,1659.38
2018-08-25T07:31:40.596Z,1040.62
2018-08-25T07:32:40.588Z,691.88
2018-08-25T07:33:40.576Z,725.62
2018-08-25T07:34:40.579Z,736.88
2018-08-25T07:35:40.556Z,641.25
2018-08-25T07:36:40.555Z,551.25
2018-08-25T07:37:40.532Z,511.88
2018-08-25T07:38:40.523Z,523.12
2018-08-25T07:39:40.509Z,500.62
2018-08-25T07:40:40.523Z,466.88
2018-08-25T07:41:40.487Z,556.88
2018-08-25T07:42:40.484Z,585.00
2018-08-25T07:43:40.466Z,495.00
2018-08-25T07:44:40.453Z,427.50
2018-08-25T07:45:40.443Z,438.75
2018-08-25T07:46:40.450Z,483.75
2018-08-25T07:47:40.419Z,540.00
2018-08-25T07:48:40.437Z,534.38
2018-08-25T07:49:40.530Z,540.00
2018-08-25T07:50:40.390Z,455.62
2018-08-25T07:51:40.392Z,562.50
2018-08-25T07:52:40.389Z,675.00
2018-08-25T07:53:40.375Z,556.88
2018-08-25T07:54:40.345Z,399.38
2018-08-25T07:55:40.334Z,360.00
2018-08-25T07:56:40.324Z,337.50
2018-08-25T07:57:40.352Z,376.88
2018-08-25T07:58:40.459Z,528.75
2018-08-25T07:59:40.288Z,2283.75
2018-08-25T08:00:40.275Z,2536.88
2018-08-25T08:01:40.263Z,2418.75
2018-08-25T08:02:40.268Z,759.38
2018-08-25T08:03:40.258Z,624.38
2018-08-25T08:04:40.232Z,1698.75
2018-08-25T08:05:40.291Z,2053.12
2018-08-25T08:06:40.211Z,2356.88
2018-08-25T08:07:40.215Z,2491.88
2018-08-25T08:08:40.188Z,961.88
2018-08-25T08:09:40.177Z,2475.00
2018-08-25T08:10:40.207Z,2154.38
2018-08-25T08:11:40.192Z,2548.12
2018-08-25T08:12:40.170Z,1012.50
2018-08-25T08:13:40.132Z,1451.25
2018-08-25T08:14:40.195Z,748.12
2018-08-25T08:15:40.120Z,798.75
2018-08-25T08:16:40.112Z,860.62
2018-08-25T08:17:40.133Z,2773.12
2018-08-25T08:18:40.115Z,843.75
2018-08-25T08:19:40.067Z,731.25
2018-08-25T08:20:40.055Z,888.75
2018-08-25T08:21:40.095Z,2975.62
2018-08-25T08:22:40.033Z,1265.62
2018-08-25T08:23:40.020Z,945.00
2018-08-25T08:24:40.119Z,888.75
2018-08-25T08:25:40.000Z,849.38
2018-08-25T08:26:39.991Z,1558.12
2018-08-25T08:27:39.977Z,765.00
2018-08-25T08:28:39.988Z,1631.25
2018-08-25T08:29:39.958Z,658.12
2018-08-25T08:30:40.095Z,601.88
2018-08-25T08:31:39.936Z,2210.62
2018-08-25T08:32:39.922Z,607.50
2018-08-25T08:33:39.908Z,714.38
2018-08-25T08:34:39.916Z,1485.00
2018-08-25T08:35:39.892Z,1496.25
2018-08-25T08:36:39.952Z,2407.50
2018-08-25T08:37:39.870Z,1372.50
2018-08-25T08:38:39.873Z,1198.12
2018-08-25T08:39:40.092Z,2407.50
2018-08-25T08:40:39.883Z,2829.38
2018-08-25T08:41:39.818Z,2868.75
2018-08-25T08:42:39.932Z,2936.25
2018-08-25T08:43:39.929Z,3043.12
2018-08-25T08:44:39.803Z,2418.75
2018-08-25T08:45:39.817Z,810.00
2018-08-25T08:46:39.765Z,607.50
2018-08-25T08:47:39.799Z,438.75
2018-08-25T08:48:39.747Z,399.38
2018-08-25T08:49:46.597Z,365.62
2018-08-25T08:50:39.727Z,315.00
2018-08-25T08:51:39.724Z,354.38
2018-08-25T08:52:39.701Z,483.75
2018-08-25T08:53:39.687Z,697.50
2018-08-25T08:54:39.780Z,1046.25
2018-08-25T08:55:39.669Z,776.25
2018-08-25T08:56:39.685Z,821.25
2018-08-25T08:57:39.764Z,1569.38
2018-08-25T08:58:39.631Z,832.50
2018-08-25T08:59:39.622Z,798.75
2018-08-25T09:00:39.608Z,810.00
2018-08-25T09:01:39.605Z,635.62
2018-08-25T09:02:39.609Z,506.25
2018-08-25T09:03:39.686Z,675.00
2018-08-25T09:04:39.568Z,1125.00
2018-08-25T09:05:39.579Z,1434.38
2018-08-25T09:06:39.543Z,2008.12
2018-08-25T09:07:39.532Z,2531.25
2018-08-25T09:08:39.651Z,1068.75
2018-08-25T09:09:39.619Z,838.12
2018-08-25T09:10:39.495Z,691.88
2018-08-25T09:11:39.533Z,472.50
2018-08-25T09:12:39.474Z,416.25
2018-08-25T09:13:39.542Z,399.38
2018-08-25T09:14:39.465Z,331.88
2018-08-25T09:15:39.445Z,264.38
2018-08-25T09:16:39.428Z,213.75
2018-08-25T09:17:39.468Z,236.25
2018-08-25T09:18:39.428Z,236.25
2018-08-25T09:19:39.395Z,191.25
2018-08-25T09:20:39.384Z,191.25
2018-08-25T09:21:39.372Z,247.50
2018-08-25T09:22:39.405Z,236.25
2018-08-25T09:23:39.350Z,168.75
2018-08-25T09:24:39.353Z,135.00
2018-08-25T09:25:39.329Z,129.38
2018-08-25T09:26:39.318Z,140.62
2018-08-25T09:27:39.311Z,163.12
2018-08-25T09:28:39.313Z,191.25
2018-08-25T09:29:39.309Z,208.12
2018-08-25T09:30:39.272Z,225.00
2018-08-25T09:31:39.267Z,241.88
2018-08-25T09:32:39.252Z,258.75
2018-08-25T09:33:39.245Z,270.00
2018-08-25T09:34:39.237Z,298.12
2018-08-25T09:35:39.245Z,309.38
2018-08-25T09:36:39.258Z,343.12
2018-08-25T09:37:39.203Z,388.12
2018-08-25T09:38:39.185Z,427.50
2018-08-25T09:39:39.176Z,444.38
2018-08-25T09:40:39.167Z,450.00
2018-08-25T09:41:39.181Z,427.50
2018-08-25T09:42:39.143Z,382.50
2018-08-25T09:43:39.134Z,348.75
2018-08-25T09:44:39.121Z,303.75
2018-08-25T09:45:39.112Z,281.25
2018-08-25T09:46:39.097Z,281.25
2018-08-25T09:47:39.106Z,253.12
2018-08-25T09:48:39.075Z,230.62
2018-08-25T09:49:39.079Z,208.12
2018-08-25T09:50:39.057Z,196.88
2018-08-25T09:51:39.046Z,202.50
2018-08-25T09:52:39.033Z,213.75
2018-08-25T09:53:39.135Z,236.25
2018-08-25T09:54:39.035Z,253.12
2018-08-25T09:55:39.003Z,258.75
2018-08-25T09:56:38.989Z,303.75
2018-08-25T09:57:38.980Z,382.50
2018-08-25T09:58:38.967Z,444.38
2018-08-25T09:59:38.959Z,466.88
2018-08-25T10:00:38.964Z,433.12
2018-08-25T10:01:38.936Z,433.12
2018-08-25T10:02:38.923Z,511.88
2018-08-25T10:03:38.911Z,607.50
2018-08-25T10:04:38.904Z,601.88
2018-08-25T10:05:38.891Z,601.88
2018-08-25T10:06:38.920Z,613.12
2018-08-25T10:07:38.868Z,596.25
2018-08-25T10:08:38.856Z,433.12
2018-08-25T10:09:38.848Z,292.50
2018-08-25T10:10:38.836Z,219.38
2018-08-25T10:11:38.825Z,135.00
2018-08-25T10:12:38.833Z,157.50
2018-08-25T10:13:38.809Z,253.12
2018-08-25T10:14:38.794Z,405.00
2018-08-25T10:15:38.779Z,410.62
2018-08-25T10:16:38.770Z,669.38
2018-08-25T10:17:38.776Z,765.00
2018-08-25T10:18:38.762Z,900.00
2018-08-25T10:19:38.739Z,1288.12
2018-08-25T10:20:38.727Z,1546.88
2018-08-25T10:21:38.716Z,995.62
2018-08-25T10:22:38.702Z,652.50
2018-08-25T10:23:38.756Z,534.38
2018-08-25T10:24:38.699Z,534.38
2018-08-25T10:25:38.670Z,579.38
2018-08-25T10:26:38.660Z,714.38
2018-08-25T10:27:38.647Z,804.38
2018-08-25T10:28:38.650Z,855.00
2018-08-25T10:29:38.624Z,900.00
2018-08-25T10:30:38.614Z,888.75
2018-08-25T10:31:38.603Z,894.38
2018-08-25T10:32:38.594Z,916.88
2018-08-25T10:33:38.594Z,961.88
2018-08-25T10:34:38.585Z,1040.62
2018-08-25T10:35:38.577Z,1130.62
2018-08-25T10:36:38.551Z,1203.75
2018-08-25T10:37:38.537Z,1428.75
2018-08-25T10:38:38.547Z,4741.88
2018-08-25T10:39:38.515Z,5793.75
2018-08-25T10:40:38.503Z,5889.38
2018-08-25T10:41:38.572Z,2041.88
2018-08-25T10:42:38.494Z,1209.38
2018-08-25T10:43:38.474Z,1158.75
2018-08-25T10:44:38.481Z,2430.00
2018-08-25T10:45:38.447Z,5433.75
2018-08-25T10:46:38.436Z,3228.75
2018-08-25T10:47:38.427Z,9320.62
2018-08-25T10:48:38.419Z,22415.62
2018-08-25T10:49:38.410Z,27534.38
2018-08-25T10:50:38.408Z,17246.25
2018-08-25T10:51:38.383Z,2205.00
2018-08-25T10:52:38.387Z,2829.38
2018-08-25T10:53:38.360Z,3712.50
2018-08-25T10:54:38.352Z,1018.12
2018-08-25T10:55:38.353Z,3414.38
2018-08-25T10:56:38.330Z,3645.00
2018-08-25T10:57:38.332Z,3757.50
2018-08-25T10:58:38.308Z,3645.00
2018-08-25T10:59:38.294Z,3600.00
2018-08-25T11:00:38.482Z,2131.88
2018-08-25T11:01:38.274Z,4021.88
2018-08-25T11:02:38.265Z,4106.25
2018-08-25T11:03:38.256Z,4269.38
2018-08-25T11:04:38.241Z,1136.25
2018-08-25T11:05:38.230Z,4708.12
2018-08-25T11:06:38.243Z,2829.38
2018-08-25T11:07:38.211Z,1378.12
2018-08-25T11:08:38.207Z,2345.62
2018-08-25T11:09:38.190Z,1434.38
2018-08-25T11:10:38.175Z,4500.00
2018-08-25T11:11:38.170Z,2120.62
2018-08-25T11:12:38.172Z,2075.62
2018-08-25T11:13:38.160Z,3943.12
2018-08-25T11:14:38.136Z,3009.38
2018-08-25T11:15:38.128Z,3802.50
2018-08-25T11:16:38.115Z,3976.88
2018-08-25T11:17:38.106Z,3268.12
2018-08-25T11:18:38.096Z,4269.38
2018-08-25T11:19:38.105Z,4207.50
2018-08-25T11:20:38.068Z,4095.00
2018-08-25T11:21:38.069Z,1468.12
2018-08-25T11:22:38.051Z,4505.62
2018-08-25T11:23:38.068Z,3943.12
2018-08-25T11:24:38.029Z,3937.50
2018-08-25T11:25:38.030Z,3982.50
2018-08-25T11:26:38.008Z,4016.25
2018-08-25T11:27:38.086Z,3999.38
2018-08-25T11:28:37.987Z,4179.38
2018-08-25T11:29:37.975Z,2300.62
2018-08-25T11:30:37.978Z,781.88
2018-08-25T11:31:37.957Z,2469.38
2018-08-25T11:32:37.951Z,3116.25
2018-08-25T11:33:37.962Z,4500.00
2018-08-25T11:34:37.918Z,1170.00
2018-08-25T11:35:37.926Z,956.25
2018-08-25T11:36:37.896Z,1254.38
2018-08-25T11:37:37.954Z,798.75
2018-08-25T11:38:37.874Z,646.88
2018-08-25T11:39:37.869Z,478.12
2018-08-25T11:40:37.856Z,360.00
2018-08-25T11:41:37.860Z,298.12
2018-08-25T11:42:37.840Z,365.62
2018-08-25T11:43:37.819Z,517.50
2018-08-25T11:44:37.812Z,613.12
2018-08-25T11:45:37.799Z,624.38
2018-08-25T11:46:37.825Z,601.88
2018-08-25T11:47:37.868Z,568.12
2018-08-25T11:48:37.842Z,545.62
2018-08-25T11:49:37.757Z,562.50
2018-08-25T11:50:37.745Z,607.50
2018-08-25T11:51:37.759Z,680.62
2018-08-25T11:52:37.819Z,765.00
2018-08-25T11:53:37.715Z,810.00
2018-08-25T11:54:37.707Z,815.62
2018-08-25T11:55:37.806Z,922.50
2018-08-25T11:56:37.681Z,1096.88
2018-08-25T11:57:37.686Z,1271.25
2018-08-25T11:58:37.763Z,1518.75
2018-08-25T11:59:37.648Z,1833.75
2018-08-25T12:00:37.639Z,1586.25
2018-08-25T12:01:37.678Z,1704.38
2018-08-25T12:02:37.713Z,2688.75
2018-08-25T12:03:37.673Z,1428.75
2018-08-25T12:04:37.592Z,1546.88
2018-08-25T12:05:37.582Z,1878.75
2018-08-25T12:06:37.569Z,4207.50
2018-08-25T12:07:37.584Z,1440.00
2018-08-25T12:08:37.548Z,1501.88
2018-08-25T12:09:37.568Z,1271.25
2018-08-25T12:10:37.532Z,1468.12
2018-08-25T12:11:37.516Z,2880.00
2018-08-25T12:12:37.524Z,3937.50
2018-08-25T12:13:37.492Z,4606.88
2018-08-25T12:14:37.483Z,4421.25
2018-08-25T12:15:37.472Z,3965.62
2018-08-25T12:16:37.468Z,3701.25
2018-08-25T12:17:37.476Z,3661.88
2018-08-25T12:18:37.440Z,3583.12
2018-08-25T12:19:37.463Z,3566.25
2018-08-25T12:20:37.417Z,3746.25
2018-08-25T12:21:37.407Z,3751.88
2018-08-25T12:22:37.486Z,3639.38
2018-08-25T12:23:37.448Z,3594.38
2018-08-25T12:24:37.376Z,3611.25
2018-08-25T12:25:37.363Z,3605.62
2018-08-25T12:26:37.354Z,3678.75
2018-08-25T12:27:37.343Z,2660.62
2018-08-25T12:28:37.334Z,3273.75
2018-08-25T12:29:37.379Z,4027.50
2018-08-25T12:30:37.363Z,1366.88
2018-08-25T12:31:37.302Z,4252.50
2018-08-25T12:32:37.302Z,1288.12
2018-08-25T12:33:37.394Z,1164.38
2018-08-25T12:34:37.270Z,1074.38
2018-08-25T12:35:37.324Z,1198.12
2018-08-25T12:36:37.359Z,1023.75
2018-08-25T12:37:37.235Z,1417.50
2018-08-25T12:38:37.227Z,1305.00
2018-08-25T12:39:37.279Z,2986.88
2018-08-25T12:40:37.205Z,3920.62
2018-08-25T12:41:37.191Z,3808.12
2018-08-25T12:42:37.179Z,3735.00
2018-08-25T12:43:37.331Z,3729.38